Hovedside
METAR-TAF:

METAR-TAF

Lufthavner :

João Paulo II lufthavn

Ponta Delgada, Azorene, Portugal

breddegrad: 37-44N, lengdegrad: 025-42W, høyde over havet: 71 m

Gjeldene værobservasjon

Denne rapporten ble laget for 40 minutter siden, klokken 06:00 UTC
Vind 7 kt fra Nordøst, skiftende mellom Nord og Øst-nordøst
Temperatur 16°C
Luftfuktighet 72%
Trykk 1032 hPa
Sikt 10 km eller mer
Få skyer i en høyde av 2000 ft
Brutte skyer i en høyde av 4500 ft

METAR: LPPD 150600Z 04007KT 010V070 9999 FEW020 BKN045 16/11 Q1032

Tid: 05:40 (06:40 UTC)

Varsel

Denne rapporten ble laget for 1 time og 40 minutter siden, klokken 05:00 UTC
Varsel gyldig fra 15. klokken 06 UTC til 16. klokken 06 UTC
Vind 10 kt fra Nord-nordøst
Sikt 10 km eller mer
Spredte skyer i en høyde av 2200 ft
Brutte skyer i en høyde av 3500 ft
Blir
fra 16. klokken 02 UTC til 16. klokken 05 UTC
Vind 7 kt fra Nord-nordvest

TAF: LPPD 150500Z 1506/1606 03010KT 9999 SCT022 BKN035 BECMG 1602/1605 34007KT

Værobservasjoner og værvarsel for over 4000 flyplasser (METAR- og TAF-rapporter).

Tilgjengelige stasjoner er representert av de røde og gule prikkene på kartet.

Hold musepekeren over prikken for å se navnet på stasjonen.

Klikk så for å se værobservasjoner og -varsler.

For å forandre kartet kan du klikke på den grønne knappen med svart kryss for å zoome inn, på den grønne knappen med strek for å zoome ut, eller på de grønne pilene for å se tilstøtende kart.


METAR-TAF: